createdAt,value
2022-08-23T00:08:31.894Z,19.6
2022-08-23T00:18:34.544Z,19.6
2022-08-23T00:28:36.623Z,19.3
2022-08-23T00:48:40.822Z,19.2
2022-08-23T00:58:43.345Z,18.9
2022-08-23T01:08:45.100Z,19
2022-08-23T01:18:46.945Z,18.8
2022-08-23T01:28:48.669Z,18.7
2022-08-23T01:38:50.491Z,18.5
2022-08-23T01:48:52.421Z,18.3
2022-08-23T01:58:54.598Z,18.1
2022-08-23T02:08:56.522Z,18.1
2022-08-23T02:18:58.487Z,18.1
2022-08-23T02:29:00.057Z,18
2022-08-23T02:39:02.107Z,18
2022-08-23T02:49:04.374Z,17.8
2022-08-23T02:59:06.450Z,17.6
2022-08-23T03:09:08.778Z,17.5
2022-08-23T03:19:11.232Z,17.5
2022-08-23T03:49:17.666Z,17.1
2022-08-23T03:59:20.163Z,17.2
2022-08-23T04:19:24.386Z,16.6
2022-08-23T04:29:33.873Z,16.7
2022-08-23T04:32:26.708Z,16.7
2022-08-23T04:39:38.893Z,16.7
2022-08-23T04:49:40.626Z,16.6
2022-08-23T04:59:42.569Z,16.5
2022-08-23T05:09:44.303Z,16.6
2022-08-23T05:19:47.030Z,16.7
2022-08-23T05:29:48.577Z,16.9
2022-08-23T05:39:51.278Z,17.2
2022-08-23T05:49:53.679Z,17.5
2022-08-23T05:59:55.420Z,17.8
2022-08-23T06:09:57.636Z,18.3
2022-08-23T06:30:01.631Z,19.1
2022-08-23T06:40:03.581Z,19.7
2022-08-23T06:50:05.438Z,20.1
2022-08-23T07:00:07.299Z,20.5
2022-08-23T07:10:09.032Z,21.1
2022-08-23T07:20:10.819Z,21.5
2022-08-23T07:30:12.646Z,22.2
2022-08-23T07:40:20.444Z,22.6
2022-08-23T07:50:16.508Z,22.9
2022-08-23T08:00:18.542Z,23
2022-08-23T08:10:20.517Z,23.4
2022-08-23T08:20:22.845Z,23.8
2022-08-23T08:30:26.147Z,24
2022-08-23T08:40:26.871Z,24.3
2022-08-23T08:50:29.129Z,24.2
2022-08-23T09:00:31.247Z,24.8
2022-08-23T09:20:35.287Z,25.4
2022-08-23T09:30:37.234Z,25.1
2022-08-23T09:40:41.468Z,25.6
2022-08-23T09:50:40.806Z,26.2
2022-08-23T10:00:42.740Z,26.1
2022-08-23T10:10:45.784Z,26.5
2022-08-23T10:20:46.738Z,26.7
2022-08-23T10:30:48.606Z,27.2
2022-08-23T10:40:50.763Z,27.3
2022-08-23T10:50:55.505Z,27.4
2022-08-23T11:00:54.347Z,27.8
2022-08-23T11:10:57.007Z,28
2022-08-23T11:20:58.453Z,27.9
2022-08-23T11:31:01.007Z,28.2
2022-08-23T11:41:03.274Z,28.7
2022-08-23T11:51:05.475Z,28.7
2022-08-23T12:01:07.659Z,28.3
2022-08-23T12:11:10.009Z,28.6
2022-08-23T12:21:11.881Z,29.1
2022-08-23T12:31:14.352Z,29.1
2022-08-23T12:41:16.665Z,29.5
2022-08-23T12:51:18.752Z,29
2022-08-23T13:01:20.981Z,29.5
2022-08-23T13:11:23.410Z,29.8
2022-08-23T13:21:25.914Z,29.7
2022-08-23T13:31:27.890Z,29.4
2022-08-23T13:41:29.834Z,30.1
2022-08-23T14:01:34.338Z,30.1
2022-08-23T14:21:38.548Z,31.2
2022-08-23T14:51:45.434Z,30.4
2022-08-23T15:01:47.376Z,30.6
2022-08-23T15:31:53.999Z,30.5
2022-08-23T15:51:58.733Z,30.5
2022-08-23T16:02:00.934Z,30.7
2022-08-23T16:12:02.772Z,30.5
2022-08-23T16:22:05.220Z,30.5
2022-08-23T16:32:06.905Z,31.7
2022-08-23T16:42:09.366Z,29.8
2022-08-23T16:52:11.641Z,29.8
2022-08-23T17:02:14.302Z,29.6
2022-08-23T17:12:16.320Z,29.4
2022-08-23T17:22:18.038Z,29.3
2022-08-23T17:32:20.370Z,29
2022-08-23T17:42:22.205Z,28.8
2022-08-23T17:52:24.483Z,28.6
2022-08-23T18:02:26.545Z,28.3
2022-08-23T18:12:28.329Z,28.1
2022-08-23T18:22:29.995Z,27.8
2022-08-23T18:32:32.530Z,27.6
2022-08-23T18:42:34.439Z,27.3
2022-08-23T18:52:36.286Z,27.2
2022-08-23T19:02:38.620Z,27
2022-08-23T19:12:40.693Z,26.7
2022-08-23T19:22:42.502Z,26.4
2022-08-23T19:32:44.905Z,26
2022-08-23T19:42:47.506Z,25.9
2022-08-23T19:52:49.506Z,25.7
2022-08-23T20:02:51.626Z,25.5
2022-08-23T20:12:53.463Z,25.5
2022-08-23T20:22:55.390Z,25.4
2022-08-23T20:32:57.323Z,25.3
2022-08-23T20:42:59.375Z,25.1
2022-08-23T20:53:01.949Z,24.7
2022-08-23T21:03:04.147Z,24.4
2022-08-23T21:13:10.438Z,24.2
2022-08-23T21:23:08.985Z,24
2022-08-23T21:33:11.217Z,24
2022-08-23T21:43:13.583Z,24
2022-08-23T21:53:15.785Z,23.9
2022-08-23T22:03:18.339Z,23.5
2022-08-23T22:13:20.405Z,23.1
2022-08-23T22:23:22.614Z,22.8
2022-08-23T22:33:24.553Z,22.7
2022-08-23T22:43:27.040Z,22.7
2022-08-23T22:53:29.580Z,22.4
2022-08-23T23:03:32.004Z,22.6
2022-08-23T23:13:34.417Z,22.6
2022-08-23T23:33:38.516Z,22.3
2022-08-23T23:43:40.915Z,22.2
2022-08-23T23:53:43.575Z,22.4
